createdAt,value
2022-12-17T00:02:18.725Z,3.27
2022-12-17T00:05:05.940Z,3.00
2022-12-17T00:07:52.908Z,2.78
2022-12-17T00:10:40.322Z,2.95
2022-12-17T00:13:38.338Z,4.54
2022-12-17T00:16:26.784Z,5.93
2022-12-17T00:19:13.724Z,6.67
2022-12-17T00:22:00.744Z,6.95
2022-12-17T00:24:47.889Z,6.16
2022-12-17T00:27:34.809Z,5.31
2022-12-17T00:30:21.998Z,4.69
2022-12-17T00:33:10.036Z,4.24
2022-12-17T00:36:00.157Z,3.85
2022-12-17T00:38:48.708Z,3.52
2022-12-17T00:41:35.582Z,3.24
2022-12-17T00:44:22.790Z,3.00
2022-12-17T00:47:11.014Z,3.12
2022-12-17T00:49:57.707Z,4.59
2022-12-17T00:52:45.649Z,6.03
2022-12-17T00:55:33.083Z,7.06
2022-12-17T00:58:19.965Z,7.73
2022-12-17T01:01:07.925Z,7.99
2022-12-17T01:03:54.971Z,7.05
2022-12-17T01:06:43.850Z,6.12
2022-12-17T01:09:30.973Z,5.43
2022-12-17T01:12:18.183Z,4.90
2022-12-17T01:15:04.969Z,4.48
2022-12-17T01:17:51.903Z,4.13
2022-12-17T01:20:39.070Z,3.82
2022-12-17T01:23:27.157Z,3.56
2022-12-17T01:26:15.903Z,3.32
2022-12-17T01:29:03.124Z,3.50
2022-12-17T01:31:49.882Z,5.14
2022-12-17T01:34:37.330Z,6.52
2022-12-17T01:37:24.298Z,7.40
2022-12-17T01:40:13.173Z,7.84
2022-12-17T01:43:02.389Z,7.02
2022-12-17T01:46:05.740Z,6.10
2022-12-17T01:49:00.374Z,5.38
2022-12-17T01:51:49.684Z,4.88
2022-12-17T01:54:38.172Z,4.47
2022-12-17T01:57:26.624Z,4.14
2022-12-17T02:00:23.737Z,3.84
2022-12-17T02:03:10.961Z,3.56
2022-12-17T02:06:14.238Z,3.32
2022-12-17T02:09:13.464Z,3.65
2022-12-17T02:12:34.627Z,5.37
2022-12-17T02:15:24.937Z,6.84
2022-12-17T02:18:16.968Z,7.63
2022-12-17T02:21:07.675Z,7.86
2022-12-17T02:24:20.897Z,6.91
2022-12-17T02:27:15.212Z,5.91
2022-12-17T02:30:09.994Z,5.27
2022-12-17T02:33:01.777Z,4.77
2022-12-17T02:35:52.538Z,4.36
2022-12-17T02:38:42.781Z,4.00
2022-12-17T02:41:55.146Z,3.69
2022-12-17T02:44:43.528Z,3.39
2022-12-17T02:47:32.954Z,3.16
2022-12-17T02:50:20.130Z,3.33
2022-12-17T03:03:37.318Z,8.24
2022-12-17T03:06:24.938Z,7.46
2022-12-17T03:09:12.049Z,6.48
2022-12-17T03:11:59.164Z,5.73
2022-12-17T03:14:46.145Z,5.14
2022-12-17T03:17:33.763Z,4.68
2022-12-17T03:20:20.979Z,4.29
2022-12-17T03:23:08.135Z,3.94
2022-12-17T03:25:55.218Z,3.63
2022-12-17T03:28:42.329Z,3.34
2022-12-17T03:31:29.281Z,3.10
2022-12-17T03:34:16.656Z,3.26
2022-12-17T03:37:03.369Z,4.86
2022-12-17T03:39:51.051Z,6.50
2022-12-17T03:42:38.102Z,7.58
2022-12-17T03:45:25.773Z,7.97
2022-12-17T03:48:23.408Z,7.00
2022-12-17T03:51:12.045Z,5.97
2022-12-17T03:53:59.715Z,5.28
2022-12-17T03:56:47.569Z,4.74
2022-12-17T03:59:34.623Z,4.32
2022-12-17T04:02:22.122Z,3.96
2022-12-17T04:05:09.324Z,3.66
2022-12-17T04:07:56.860Z,3.38
2022-12-17T04:10:43.901Z,3.13
2022-12-17T04:13:33.675Z,2.90
2022-12-17T04:16:24.631Z,3.07
2022-12-17T04:19:12.084Z,4.57
2022-12-17T04:22:18.615Z,6.01
2022-12-17T04:25:05.487Z,7.01
2022-12-17T04:27:52.690Z,7.27
2022-12-17T04:30:39.793Z,6.42
2022-12-17T04:33:26.950Z,5.56
2022-12-17T04:36:14.259Z,4.94
2022-12-17T04:39:01.670Z,4.45
2022-12-17T04:41:49.047Z,4.04
2022-12-17T04:44:36.241Z,3.68
2022-12-17T04:47:23.302Z,3.37
2022-12-17T04:50:10.128Z,3.12
2022-12-17T04:52:56.963Z,2.88
2022-12-17T04:55:43.846Z,2.66
2022-12-17T04:58:31.267Z,2.48
2022-12-17T05:01:18.416Z,2.55
2022-12-17T05:04:06.010Z,3.67
2022-12-17T05:06:52.890Z,4.77
2022-12-17T05:09:40.059Z,5.60
2022-12-17T05:12:27.037Z,5.88
2022-12-17T05:15:13.746Z,5.75
2022-12-17T05:18:00.992Z,5.06
2022-12-17T05:20:47.954Z,4.41
2022-12-17T05:23:35.160Z,3.92
2022-12-17T05:26:38.793Z,3.54
2022-12-17T05:29:25.982Z,3.20
2022-12-17T05:32:13.068Z,2.92
2022-12-17T05:35:00.202Z,2.69
2022-12-17T05:37:47.697Z,2.47
2022-12-17T05:40:34.700Z,2.27
2022-12-17T05:43:24.684Z,2.24
2022-12-17T05:46:11.947Z,3.32
2022-12-17T05:48:59.112Z,4.50
